createdAt,value
2019-01-23T00:01:56.141Z,28.90
2019-01-23T00:04:27.171Z,30.10
2019-01-23T00:06:57.615Z,30.60
2019-01-23T00:09:32.453Z,32.37
2019-01-23T00:12:03.014Z,30.00
2019-01-23T00:14:33.580Z,29.97
2019-01-23T00:17:04.403Z,30.13
2019-01-23T00:19:35.059Z,29.87
2019-01-23T00:22:06.170Z,29.27
2019-01-23T00:24:36.774Z,30.50
2019-01-23T00:27:07.379Z,29.23
2019-01-23T00:29:38.210Z,31.37
2019-01-23T00:32:09.044Z,30.70
2019-01-23T00:34:39.670Z,31.97
2019-01-23T00:37:10.174Z,29.73
2019-01-23T00:39:40.676Z,29.60
2019-01-23T00:42:11.421Z,31.33
2019-01-23T00:44:41.769Z,31.30
2019-01-23T00:47:12.249Z,32.37
2019-01-23T00:49:42.830Z,29.40
2019-01-23T00:52:13.530Z,30.17
2019-01-23T00:54:44.014Z,31.67
2019-01-23T00:57:14.429Z,32.60
2019-01-23T00:59:44.997Z,31.10
2019-01-23T01:02:15.660Z,32.33
2019-01-23T01:04:46.116Z,31.67
2019-01-23T01:07:16.666Z,30.77
2019-01-23T01:09:47.255Z,34.87
2019-01-23T01:12:17.781Z,33.83
2019-01-23T01:14:48.598Z,30.40
2019-01-23T01:17:19.469Z,32.13
2019-01-23T01:19:49.890Z,32.23
2019-01-23T01:22:20.313Z,28.07
2019-01-23T01:24:50.794Z,32.70
2019-01-23T01:27:21.444Z,26.20
2019-01-23T01:29:51.961Z,32.40
2019-01-23T01:32:41.659Z,31.43
2019-01-23T01:35:12.243Z,30.73
2019-01-23T01:37:42.684Z,33.03
2019-01-23T01:40:14.373Z,32.17
2019-01-23T01:42:44.995Z,31.17
2019-01-23T01:45:16.190Z,28.10
2019-01-23T01:47:46.828Z,31.97
2019-01-23T01:50:19.625Z,34.63
2019-01-23T01:52:50.292Z,29.67
2019-01-23T01:55:20.799Z,31.03
2019-01-23T01:57:54.651Z,35.93
2019-01-23T02:00:25.871Z,33.17
2019-01-23T02:02:56.376Z,30.87
2019-01-23T02:05:26.801Z,31.43
2019-01-23T02:07:57.186Z,32.47
2019-01-23T02:10:28.011Z,31.47
2019-01-23T02:12:58.570Z,34.07
2019-01-23T02:15:29.148Z,32.43
2019-01-23T02:18:00.591Z,31.70
2019-01-23T02:20:31.016Z,33.93
2019-01-23T02:23:01.391Z,30.47
2019-01-23T02:25:31.997Z,32.13
2019-01-23T02:28:02.457Z,35.43
2019-01-23T02:30:33.156Z,33.90
2019-01-23T02:33:03.852Z,34.93
2019-01-23T02:35:34.282Z,33.80
2019-01-23T02:38:04.866Z,36.13
2019-01-23T02:40:35.578Z,36.80
2019-01-23T02:43:05.974Z,37.90
2019-01-23T02:45:36.382Z,36.83
2019-01-23T02:48:06.866Z,32.37
2019-01-23T02:50:37.300Z,29.33
2019-01-23T02:53:07.711Z,37.97
2019-01-23T02:55:38.272Z,37.83
2019-01-23T02:58:09.037Z,36.17
2019-01-23T03:00:39.662Z,35.90
2019-01-23T03:03:10.031Z,38.60
2019-01-23T03:05:40.559Z,33.83
2019-01-23T03:08:11.237Z,37.63
2019-01-23T03:10:41.700Z,34.47
2019-01-23T03:13:12.296Z,36.13
2019-01-23T03:15:43.680Z,37.47
2019-01-23T03:18:14.539Z,36.40
2019-01-23T03:20:45.081Z,33.20
2019-01-23T03:23:15.531Z,35.87
2019-01-23T03:25:46.024Z,35.17
2019-01-23T03:28:16.669Z,36.40
2019-01-23T03:30:47.524Z,35.00
2019-01-23T03:33:17.955Z,34.20
2019-01-23T03:35:48.482Z,32.00
2019-01-23T03:38:19.041Z,31.63
2019-01-23T03:40:49.624Z,31.47
2019-01-23T03:43:20.233Z,32.80
2019-01-23T03:45:51.100Z,35.23
2019-01-23T03:48:21.715Z,37.50
2019-01-23T03:50:52.236Z,33.63
2019-01-23T03:53:22.712Z,36.23
2019-01-23T03:55:53.782Z,36.17
2019-01-23T03:58:24.282Z,39.20
2019-01-23T04:00:54.713Z,36.77
2019-01-23T04:03:25.126Z,35.20
2019-01-23T04:05:55.758Z,35.03
2019-01-23T04:08:26.348Z,36.47
2019-01-23T04:10:56.797Z,36.70
2019-01-23T04:13:27.122Z,34.23
2019-01-23T04:15:57.943Z,37.27
2019-01-23T04:18:28.636Z,28.77
2019-01-23T04:20:59.188Z,36.70
2019-01-23T04:23:29.706Z,36.17
2019-01-23T04:26:00.239Z,37.87
2019-01-23T04:28:30.666Z,37.63
2019-01-23T04:31:01.126Z,36.70
2019-01-23T04:33:32.233Z,35.23
2019-01-23T04:36:02.824Z,37.43
2019-01-23T04:38:33.373Z,37.37
2019-01-23T04:41:03.860Z,40.60
2019-01-23T04:43:34.263Z,36.37
2019-01-23T04:46:04.981Z,38.70
2019-01-23T04:48:35.522Z,36.63
2019-01-23T04:51:35.751Z,37.47
2019-01-23T04:54:06.832Z,38.40
2019-01-23T04:56:37.168Z,34.97
2019-01-23T04:59:07.650Z,36.37
2019-01-23T05:01:38.411Z,37.40
2019-01-23T05:04:09.040Z,37.10
2019-01-23T05:06:40.045Z,37.00
2019-01-23T05:09:10.753Z,36.33
2019-01-23T05:11:41.477Z,39.67
2019-01-23T05:14:12.166Z,37.37
2019-01-23T05:16:43.018Z,38.37
2019-01-23T05:19:13.563Z,36.77
2019-01-23T05:21:44.094Z,35.23
2019-01-23T05:24:14.643Z,35.83
2019-01-23T05:26:45.409Z,36.23
2019-01-23T05:29:15.697Z,36.03
2019-01-23T05:31:46.242Z,39.40
2019-01-23T05:34:16.706Z,35.63
2019-01-23T05:36:47.375Z,38.03
2019-01-23T05:39:17.978Z,38.80
2019-01-23T05:41:48.627Z,37.50
2019-01-23T05:44:19.114Z,48.60
2019-01-23T05:46:49.547Z,33.27
2019-01-23T05:49:20.159Z,36.30
2019-01-23T05:51:50.712Z,35.77
2019-01-23T05:54:21.528Z,34.67
2019-01-23T05:56:52.053Z,31.67
2019-01-23T05:59:22.671Z,37.40
2019-01-23T06:01:53.304Z,38.40
2019-01-23T06:04:23.957Z,37.10
2019-01-23T06:06:54.598Z,37.83
2019-01-23T06:09:25.148Z,36.80
2019-01-23T06:11:55.792Z,36.20
2019-01-23T06:14:26.757Z,36.73
2019-01-23T06:16:57.224Z,36.30
2019-01-23T06:19:28.073Z,38.97
2019-01-23T06:21:58.480Z,35.03
2019-01-23T06:27:27.777Z,35.77
2019-01-23T06:29:58.456Z,36.03
2019-01-23T06:32:29.683Z,35.60
2019-01-23T06:35:00.408Z,37.47
2019-01-23T06:37:31.313Z,37.17
2019-01-23T06:40:02.343Z,34.10
2019-01-23T06:42:33.209Z,37.60
2019-01-23T06:45:04.309Z,38.73
2019-01-23T06:47:35.499Z,38.23
2019-01-23T06:50:09.208Z,34.57
2019-01-23T06:52:40.025Z,33.97
2019-01-23T06:55:11.279Z,35.43
2019-01-23T06:57:42.319Z,31.63
2019-01-23T07:00:17.343Z,33.63
2019-01-23T07:02:48.679Z,36.07
2019-01-23T07:05:19.635Z,36.40
2019-01-23T07:07:50.717Z,36.20
2019-01-23T07:10:25.722Z,34.43
2019-01-23T07:12:56.218Z,36.30
2019-01-23T07:15:27.103Z,37.43
2019-01-23T07:18:00.554Z,36.00
2019-01-23T07:20:31.682Z,33.67
2019-01-23T07:23:02.468Z,37.93
2019-01-23T07:25:39.077Z,37.13
2019-01-23T07:28:11.198Z,35.90
2019-01-23T07:30:43.294Z,38.70
2019-01-23T07:33:14.259Z,36.77
2019-01-23T07:35:46.874Z,36.07
2019-01-23T07:38:17.754Z,36.43
2019-01-23T07:40:49.788Z,35.60
2019-01-23T07:43:20.605Z,37.10
2019-01-23T07:45:51.699Z,37.90
2019-01-23T07:48:22.337Z,36.87
2019-01-23T07:50:53.198Z,37.87
2019-01-23T07:53:24.205Z,38.13
2019-01-23T07:55:56.194Z,36.33
2019-01-23T07:58:27.537Z,35.50
2019-01-23T08:01:01.938Z,36.83
2019-01-23T08:03:32.715Z,35.00
2019-01-23T08:06:03.660Z,36.37
2019-01-23T08:08:34.704Z,37.80
2019-01-23T08:11:06.068Z,36.50
2019-01-23T08:13:37.315Z,36.23
2019-01-23T08:16:08.171Z,37.37
2019-01-23T08:18:38.868Z,38.73
2019-01-23T08:21:10.203Z,36.87
2019-01-23T08:23:41.778Z,37.67
2019-01-23T08:26:12.826Z,33.43
2019-01-23T08:28:43.998Z,36.23
2019-01-23T08:31:15.319Z,37.20
2019-01-23T08:33:46.254Z,37.43
2019-01-23T08:36:17.689Z,37.77
2019-01-23T08:38:48.726Z,33.27
2019-01-23T08:41:19.591Z,36.97
2019-01-23T08:43:50.605Z,38.93
2019-01-23T08:46:21.711Z,34.80
2019-01-23T08:48:52.799Z,37.27
2019-01-23T08:51:25.080Z,33.80
2019-01-23T08:53:55.978Z,38.50
2019-01-23T08:56:26.949Z,36.20
2019-01-23T08:58:59.858Z,37.67
2019-01-23T09:01:31.414Z,36.03
2019-01-23T09:04:02.620Z,39.30
2019-01-23T09:06:33.652Z,34.17
2019-01-23T09:09:06.615Z,35.87
2019-01-23T09:11:37.788Z,38.47
2019-01-23T09:14:08.999Z,34.90
2019-01-23T09:16:39.940Z,37.37
2019-01-23T09:19:10.853Z,41.60
2019-01-23T09:21:42.209Z,37.30
2019-01-23T09:24:13.099Z,35.80
2019-01-23T09:26:44.374Z,36.00
2019-01-23T09:29:16.068Z,37.33
2019-01-23T09:32:13.549Z,36.00
2019-01-23T09:35:39.129Z,31.47
2019-01-23T09:38:38.716Z,35.47
2019-01-23T09:41:34.134Z,34.27
2019-01-23T09:44:43.031Z,36.50
2019-01-23T09:47:53.550Z,34.67
2019-01-23T09:50:54.163Z,34.87
2019-01-23T09:54:04.230Z,36.73
2019-01-23T09:56:34.768Z,37.93
2019-01-23T09:59:07.356Z,36.07
2019-01-23T10:01:38.439Z,35.37
2019-01-23T10:04:10.131Z,35.73
2019-01-23T10:06:41.281Z,35.13
2019-01-23T10:09:12.804Z,35.63
2019-01-23T10:11:43.860Z,36.27
2019-01-23T10:14:16.056Z,36.50
2019-01-23T10:16:47.044Z,35.70
2019-01-23T10:19:17.766Z,37.03
2019-01-23T10:21:48.468Z,30.07
2019-01-23T10:24:19.544Z,37.93
2019-01-23T10:26:50.633Z,35.43
2019-01-23T10:29:21.970Z,36.43
2019-01-23T10:31:53.764Z,35.90
2019-01-23T10:34:24.607Z,34.97
2019-01-23T10:36:57.619Z,32.87
2019-01-23T10:39:28.985Z,36.47
2019-01-23T10:42:00.344Z,35.97
2019-01-23T10:44:31.436Z,36.23
2019-01-23T10:47:02.695Z,38.03
2019-01-23T10:49:34.091Z,37.60
2019-01-23T10:52:08.809Z,31.00
2019-01-23T10:54:40.314Z,35.47
2019-01-23T10:57:12.049Z,37.30
2019-01-23T10:59:43.143Z,37.83
2019-01-23T11:02:14.224Z,37.57
2019-01-23T11:04:45.354Z,34.47
2019-01-23T11:07:16.534Z,37.53
2019-01-23T11:09:47.356Z,35.83
2019-01-23T11:12:18.640Z,37.97
2019-01-23T11:14:49.735Z,33.90
2019-01-23T11:17:21.106Z,38.50
2019-01-23T11:19:51.960Z,33.67
2019-01-23T11:22:22.649Z,37.47
2019-01-23T11:24:53.682Z,36.30
2019-01-23T11:27:25.017Z,32.90
2019-01-23T11:29:55.980Z,35.40
2019-01-23T11:32:28.840Z,35.67
2019-01-23T11:35:01.571Z,30.27
2019-01-23T11:37:32.799Z,28.87
2019-01-23T11:40:04.722Z,32.23
2019-01-23T11:42:36.106Z,32.80
2019-01-23T11:45:08.876Z,30.17
2019-01-23T11:47:40.094Z,33.60
2019-01-23T11:50:12.816Z,31.30
2019-01-23T11:52:47.334Z,30.47
2019-01-23T11:55:18.680Z,32.87
2019-01-23T11:57:50.370Z,34.57
2019-01-23T12:00:24.461Z,33.77
2019-01-23T12:02:56.163Z,34.27
2019-01-23T12:05:27.912Z,32.57
2019-01-23T12:08:05.589Z,34.83
2019-01-23T12:10:38.255Z,34.93
2019-01-23T12:13:09.220Z,33.50
2019-01-23T12:15:41.115Z,32.07
2019-01-23T12:18:13.367Z,33.67
2019-01-23T12:20:44.705Z,32.80
2019-01-23T12:23:16.202Z,34.23
2019-01-23T12:25:51.025Z,32.13
2019-01-23T12:28:22.066Z,31.23
2019-01-23T12:30:53.341Z,30.87
2019-01-23T12:33:30.000Z,30.97
2019-01-23T12:36:01.095Z,31.07
2019-01-23T12:38:32.092Z,31.70
2019-01-23T12:41:03.001Z,26.63
2019-01-23T12:43:33.845Z,29.63
2019-01-23T12:46:05.103Z,23.03
2019-01-23T12:48:36.026Z,30.50
2019-01-23T12:51:07.190Z,30.73
2019-01-23T12:53:37.921Z,28.57
2019-01-23T12:56:09.342Z,26.70
2019-01-23T12:58:40.499Z,31.10
2019-01-23T13:01:11.682Z,27.77
2019-01-23T13:03:42.576Z,27.23
2019-01-23T13:06:13.775Z,28.17
2019-01-23T13:08:44.561Z,31.27
2019-01-23T13:11:15.890Z,30.47
2019-01-23T13:13:46.557Z,28.47
2019-01-23T13:16:18.577Z,30.37
2019-01-23T13:18:49.531Z,26.90
2019-01-23T13:21:22.375Z,30.50
2019-01-23T13:23:54.117Z,27.33
2019-01-23T13:26:25.221Z,32.20
2019-01-23T13:28:56.372Z,25.20
2019-01-23T13:31:27.346Z,31.40
2019-01-23T13:33:58.918Z,30.67
2019-01-23T13:36:30.226Z,30.00
2019-01-23T13:39:01.338Z,31.80
2019-01-23T13:41:34.278Z,32.47
2019-01-23T13:44:05.588Z,28.60
2019-01-23T13:46:36.306Z,28.20
2019-01-23T13:49:07.341Z,28.00
2019-01-23T13:51:38.462Z,31.60
2019-01-23T13:54:09.382Z,31.47
2019-01-23T13:56:40.316Z,26.13
2019-01-23T13:59:11.791Z,31.17
2019-01-23T14:01:47.177Z,26.20
2019-01-23T14:04:18.476Z,30.20
2019-01-23T14:06:52.520Z,30.53
2019-01-23T14:09:23.901Z,32.30
2019-01-23T14:11:55.002Z,32.70
2019-01-23T14:14:26.824Z,31.53
2019-01-23T14:16:58.172Z,32.67
2019-01-23T14:19:28.843Z,31.30
2019-01-23T14:21:59.737Z,32.27
2019-01-23T14:24:30.852Z,32.60
2019-01-23T14:27:01.757Z,32.67
2019-01-23T14:29:34.493Z,30.13
2019-01-23T14:32:05.396Z,33.17
2019-01-23T14:34:36.117Z,34.40
2019-01-23T14:37:07.537Z,30.97
2019-01-23T14:39:38.767Z,33.40
2019-01-23T14:42:09.592Z,33.47
2019-01-23T14:44:41.219Z,32.60
2019-01-23T14:47:12.254Z,31.00
2019-01-23T14:49:43.656Z,32.17
2019-01-23T14:52:14.892Z,34.43
2019-01-23T14:54:45.909Z,35.10
2019-01-23T14:57:18.138Z,32.17
2019-01-23T14:59:49.132Z,31.20
2019-01-23T15:02:20.542Z,29.97
2019-01-23T15:04:51.518Z,36.10
2019-01-23T15:07:25.037Z,34.93
2019-01-23T15:09:56.646Z,37.60
2019-01-23T15:12:29.807Z,38.07
2019-01-23T15:15:01.032Z,34.87
2019-01-23T15:17:32.592Z,36.17
2019-01-23T15:20:03.823Z,40.40
2019-01-23T15:22:34.987Z,36.43
2019-01-23T15:25:07.681Z,37.80
2019-01-23T15:27:40.084Z,38.13
2019-01-23T15:30:12.746Z,38.83
2019-01-23T15:32:46.804Z,33.33
2019-01-23T15:35:20.141Z,37.40
2019-01-23T15:37:52.351Z,38.27
2019-01-23T15:40:25.698Z,39.87
2019-01-23T15:42:56.555Z,38.93
2019-01-23T15:45:28.374Z,38.67
2019-01-23T15:47:59.428Z,37.70
2019-01-23T15:50:30.654Z,38.00
2019-01-23T15:53:01.622Z,40.93
2019-01-23T15:55:35.262Z,40.10
2019-01-23T15:58:06.297Z,37.77
2019-01-23T16:00:37.380Z,41.30
2019-01-23T16:03:08.269Z,38.03
2019-01-23T16:05:45.409Z,37.87
2019-01-23T16:08:16.207Z,37.13
2019-01-23T16:10:47.522Z,39.67
2019-01-23T16:13:18.176Z,38.17
2019-01-23T16:15:49.466Z,38.67
2019-01-23T16:18:23.732Z,35.37
2019-01-23T16:20:54.587Z,37.03
2019-01-23T16:23:25.690Z,38.10
2019-01-23T16:25:56.472Z,35.80
2019-01-23T16:28:28.268Z,39.70
2019-01-23T16:30:59.997Z,34.53
2019-01-23T16:33:30.604Z,39.57
2019-01-23T16:36:01.443Z,39.10
2019-01-23T16:38:32.228Z,35.87
2019-01-23T16:41:03.758Z,36.53
2019-01-23T16:43:34.593Z,35.73
2019-01-23T16:46:09.203Z,40.67
2019-01-23T16:48:40.078Z,35.87
2019-01-23T16:51:14.052Z,40.00
2019-01-23T16:53:45.543Z,35.47
2019-01-23T16:56:16.388Z,37.87
2019-01-23T16:58:47.103Z,38.70
2019-01-23T17:01:17.843Z,37.47
2019-01-23T17:03:49.429Z,40.00
2019-01-23T17:06:21.120Z,39.27
2019-01-23T17:09:00.473Z,34.80
2019-01-23T17:11:31.358Z,40.00
2019-01-23T17:14:02.057Z,36.10
2019-01-23T17:16:33.067Z,36.27
2019-01-23T17:19:03.832Z,37.87
2019-01-23T17:21:34.406Z,37.07
2019-01-23T17:24:06.077Z,40.20
2019-01-23T17:26:37.239Z,41.30
2019-01-23T17:29:08.038Z,40.33
2019-01-23T17:31:38.776Z,40.27
2019-01-23T17:34:09.904Z,37.90
2019-01-23T17:36:40.554Z,36.73
2019-01-23T17:39:11.510Z,41.30
2019-01-23T17:41:43.599Z,39.57
2019-01-23T17:44:14.572Z,39.13
2019-01-23T17:46:46.690Z,40.13
2019-01-23T17:49:17.515Z,38.30
2019-01-23T17:51:49.092Z,39.03
2019-01-23T17:54:20.142Z,40.27
2019-01-23T17:56:51.131Z,37.77
2019-01-23T17:59:22.618Z,40.77
2019-01-23T18:01:54.619Z,38.03
2019-01-23T18:04:25.779Z,44.23
2019-01-23T18:06:57.389Z,44.40
2019-01-23T18:09:28.635Z,43.77
2019-01-23T18:12:00.120Z,44.90
2019-01-23T18:14:49.099Z,44.07
2019-01-23T18:17:39.910Z,39.67
2019-01-23T18:20:13.765Z,42.27
2019-01-23T18:22:45.573Z,45.27
2019-01-23T18:25:17.768Z,41.30
2019-01-23T18:27:50.125Z,45.37
2019-01-23T18:30:24.793Z,43.73
2019-01-23T18:33:00.018Z,47.13
2019-01-23T18:35:41.125Z,43.30
2019-01-23T18:38:52.004Z,45.83
2019-01-23T18:41:47.580Z,42.00
2019-01-23T18:45:01.732Z,46.53
2019-01-23T18:48:12.809Z,43.93
2019-01-23T18:51:18.620Z,45.33
2019-01-23T18:53:50.779Z,44.50
2019-01-23T18:56:21.778Z,45.40
2019-01-23T18:58:53.514Z,44.03
2019-01-23T19:01:25.499Z,47.40
2019-01-23T19:03:57.983Z,48.17
2019-01-23T19:06:30.695Z,47.07
2019-01-23T19:09:06.215Z,46.83
2019-01-23T19:11:39.044Z,47.37
2019-01-23T19:14:10.769Z,48.20
2019-01-23T19:16:52.494Z,49.53
2019-01-23T19:19:24.339Z,48.47
2019-01-23T19:21:57.324Z,50.93
2019-01-23T19:24:29.011Z,50.83
2019-01-23T19:27:05.382Z,54.47
2019-01-23T19:29:38.156Z,50.50
2019-01-23T19:34:45.343Z,53.87
2019-01-23T19:37:16.426Z,53.43
2019-01-23T19:39:47.695Z,52.47
2019-01-23T19:42:19.054Z,55.47
2019-01-23T19:44:49.919Z,55.77
2019-01-23T19:47:21.195Z,57.47
2019-01-23T19:49:52.864Z,58.80
2019-01-23T19:52:24.589Z,54.70
2019-01-23T19:54:56.497Z,58.77
2019-01-23T19:57:27.359Z,56.23
2019-01-23T19:59:58.009Z,55.23
2019-01-23T20:02:29.149Z,50.73
2019-01-23T20:05:00.192Z,51.00
2019-01-23T20:07:32.926Z,51.03
2019-01-23T20:10:04.207Z,58.57
2019-01-23T20:12:35.259Z,54.63
2019-01-23T20:15:08.661Z,54.43
2019-01-23T20:17:44.459Z,42.53
2019-01-23T20:20:17.625Z,48.03
2019-01-23T20:22:54.261Z,40.93
2019-01-23T20:25:26.734Z,48.67
2019-01-23T20:27:57.743Z,51.23
2019-01-23T20:30:31.363Z,52.87
2019-01-23T20:33:03.775Z,47.60
2019-01-23T20:35:34.915Z,49.97
2019-01-23T20:38:06.146Z,46.40
2019-01-23T20:40:39.267Z,50.80
2019-01-23T20:43:10.717Z,44.60
2019-01-23T20:45:41.535Z,47.73
2019-01-23T20:48:13.322Z,49.83
2019-01-23T20:50:45.876Z,49.73
2019-01-23T20:53:17.197Z,53.90
2019-01-23T20:55:48.452Z,49.67
2019-01-23T20:58:19.793Z,53.77
2019-01-23T21:00:51.892Z,53.80
2019-01-23T21:03:23.556Z,49.87
2019-01-23T21:05:54.528Z,48.80
2019-01-23T21:08:25.392Z,46.63
2019-01-23T21:10:56.575Z,53.37
2019-01-23T21:13:27.986Z,50.03
2019-01-23T21:15:58.896Z,50.83
2019-01-23T21:18:29.703Z,52.80
2019-01-23T21:21:00.271Z,50.83
2019-01-23T21:23:37.211Z,45.20
2019-01-23T21:26:03.721Z,47.17
2019-01-23T21:28:53.529Z,50.30
2019-01-23T21:31:28.841Z,46.50
2019-01-23T21:33:59.305Z,47.30
2019-01-23T21:36:30.218Z,51.23
2019-01-23T21:39:00.872Z,51.10
2019-01-23T21:41:33.637Z,53.43
2019-01-23T21:44:04.495Z,49.07
2019-01-23T21:46:35.241Z,48.93
2019-01-23T21:49:05.921Z,49.63
2019-01-23T21:51:37.472Z,51.60
2019-01-23T21:54:08.286Z,48.93
2019-01-23T21:56:39.349Z,49.27
2019-01-23T21:59:09.996Z,52.43
2019-01-23T22:01:40.525Z,47.97
2019-01-23T22:04:11.285Z,53.27
2019-01-23T22:06:41.834Z,50.70
2019-01-23T22:09:12.431Z,51.33
2019-01-23T22:11:43.719Z,50.60
2019-01-23T22:14:15.952Z,50.43
2019-01-23T22:16:46.527Z,52.90
2019-01-23T22:19:17.169Z,53.33
2019-01-23T22:21:47.676Z,51.07
2019-01-23T22:24:18.247Z,49.23
2019-01-23T22:26:48.951Z,53.87
2019-01-23T22:29:19.801Z,54.17
2019-01-23T22:31:50.571Z,56.33
2019-01-23T22:34:21.062Z,55.83
2019-01-23T22:36:51.786Z,53.20
2019-01-23T22:39:22.499Z,51.23
2019-01-23T22:41:53.222Z,51.87
2019-01-23T22:44:23.635Z,54.07
2019-01-23T22:46:54.163Z,52.40
2019-01-23T22:49:25.903Z,51.50
2019-01-23T22:51:56.278Z,48.97
2019-01-23T22:54:26.790Z,52.83
2019-01-23T22:56:57.134Z,52.47
2019-01-23T22:59:27.542Z,53.10
2019-01-23T23:01:58.007Z,50.63
2019-01-23T23:04:29.580Z,51.63
2019-01-23T23:07:00.131Z,50.50
2019-01-23T23:09:31.132Z,50.07
2019-01-23T23:12:01.531Z,52.73
2019-01-23T23:14:32.265Z,51.23
2019-01-23T23:17:02.750Z,53.37
2019-01-23T23:19:33.465Z,55.63
2019-01-23T23:22:03.921Z,51.33
2019-01-23T23:24:34.518Z,50.47
2019-01-23T23:27:05.390Z,52.17
2019-01-23T23:29:36.173Z,53.10
2019-01-23T23:32:06.895Z,51.07
2019-01-23T23:34:37.385Z,48.97
2019-01-23T23:37:07.897Z,51.53
2019-01-23T23:39:38.311Z,50.43
2019-01-23T23:42:08.812Z,49.80
2019-01-23T23:44:39.222Z,49.20
2019-01-23T23:47:09.938Z,52.13
2019-01-23T23:49:42.573Z,51.63
2019-01-23T23:52:13.257Z,50.13
2019-01-23T23:54:43.596Z,50.67
2019-01-23T23:57:14.558Z,52.50
2019-01-23T23:59:46.472Z,47.93
